Terminal Aerodrome Forecast
Issued by NWS Wichita, KS

Home | Current Version | Previous Version | Text Only | Print | Product List | Glossary On
Versions: 1 2 3 4 5 6 7 8 9 10 11 12 13 14 15
000
FTUS43 KICT 252328
TAFICT
TAF
KICT 252328Z 2600/2624 18009KT P6SM BKN100
     FM260800 30009KT P6SM OVC080
     FM261100 31013G21KT P6SM SCT100
     FM261500 32021G31KT P6SM SCT100=

USA.gov is the U.S. government's official web portal to all federal, state and local government web resources and services.